sensor_id;sensor_type;location;lat;lon;timestamp;P1;durP1;ratioP1;P2;durP2;ratioP2
1507;SDS011;745;48.586;10.032;2022-09-09T00:00:14;1.30;;;1.20;;
1507;SDS011;745;48.586;10.032;2022-09-09T00:05:07;1.40;;;1.30;;
1507;SDS011;745;48.586;10.032;2022-09-09T00:14:56;1.20;;;1.10;;
1507;SDS011;745;48.586;10.032;2022-09-09T00:19:38;1.40;;;1.30;;
1507;SDS011;745;48.586;10.032;2022-09-09T00:24:37;1.40;;;1.30;;
1507;SDS011;745;48.586;10.032;2022-09-09T00:33:43;1.20;;;1.10;;
1507;SDS011;745;48.586;10.032;2022-09-09T00:38:15;1.00;;;1.00;;
1507;SDS011;745;48.586;10.032;2022-09-09T00:42:52;1.27;;;1.17;;
1507;SDS011;745;48.586;10.032;2022-09-09T00:56:54;1.57;;;1.47;;
1507;SDS011;745;48.586;10.032;2022-09-09T01:01:30;1.80;;;1.70;;
1507;SDS011;745;48.586;10.032;2022-09-09T01:10:55;1.60;;;1.50;;
1507;SDS011;745;48.586;10.032;2022-09-09T01:15:29;1.80;;;1.70;;
1507;SDS011;745;48.586;10.032;2022-09-09T01:24:54;2.10;;;1.90;;
1507;SDS011;745;48.586;10.032;2022-09-09T01:29:35;1.77;;;1.67;;
1507;SDS011;745;48.586;10.032;2022-09-09T01:34:13;2.33;;;1.80;;
1507;SDS011;745;48.586;10.032;2022-09-09T01:38:44;2.30;;;1.60;;
1507;SDS011;745;48.586;10.032;2022-09-09T01:43:15;1.53;;;1.43;;
1507;SDS011;745;48.586;10.032;2022-09-09T01:47:46;1.60;;;1.50;;
1507;SDS011;745;48.586;10.032;2022-09-09T01:52:17;1.60;;;1.50;;
1507;SDS011;745;48.586;10.032;2022-09-09T02:06:17;1.50;;;1.40;;
1507;SDS011;745;48.586;10.032;2022-09-09T02:11:14;2.60;;;1.90;;
1507;SDS011;745;48.586;10.032;2022-09-09T02:20:39;1.60;;;1.50;;
1507;SDS011;745;48.586;10.032;2022-09-09T02:25:11;1.60;;;1.50;;
1507;SDS011;745;48.586;10.032;2022-09-09T02:29:43;1.40;;;1.30;;
1507;SDS011;745;48.586;10.032;2022-09-09T02:34:15;1.30;;;1.20;;
1507;SDS011;745;48.586;10.032;2022-09-09T02:38:47;1.47;;;1.37;;
1507;SDS011;745;48.586;10.032;2022-09-09T02:43:20;1.37;;;1.27;;
1507;SDS011;745;48.586;10.032;2022-09-09T02:57:43;1.63;;;1.53;;
1507;SDS011;745;48.586;10.032;2022-09-09T03:02:17;3.17;;;1.53;;
1507;SDS011;745;48.586;10.032;2022-09-09T03:06:48;1.57;;;1.47;;
1507;SDS011;745;48.586;10.032;2022-09-09T03:11:19;1.80;;;1.50;;
1507;SDS011;745;48.586;10.032;2022-09-09T03:15:49;3.80;;;1.60;;
1507;SDS011;745;48.586;10.032;2022-09-09T03:20:21;1.70;;;1.60;;
1507;SDS011;745;48.586;10.032;2022-09-09T03:24:52;4.37;;;2.10;;
1507;SDS011;745;48.586;10.032;2022-09-09T03:29:22;1.80;;;1.70;;
1507;SDS011;745;48.586;10.032;2022-09-09T03:33:55;1.50;;;1.40;;
1507;SDS011;745;48.586;10.032;2022-09-09T03:38:28;2.10;;;1.90;;
1507;SDS011;745;48.586;10.032;2022-09-09T03:42:59;1.67;;;1.57;;
1507;SDS011;745;48.586;10.032;2022-09-09T03:47:29;5.10;;;1.90;;
1507;SDS011;745;48.586;10.032;2022-09-09T03:52:00;3.30;;;2.27;;
1507;SDS011;745;48.586;10.032;2022-09-09T03:56:31;3.73;;;1.67;;
1507;SDS011;745;48.586;10.032;2022-09-09T04:01:03;2.37;;;1.93;;
1507;SDS011;745;48.586;10.032;2022-09-09T04:05:44;3.03;;;1.70;;
1507;SDS011;745;48.586;10.032;2022-09-09T04:10:15;2.43;;;1.70;;
1507;SDS011;745;48.586;10.032;2022-09-09T04:14:46;2.83;;;1.67;;
1507;SDS011;745;48.586;10.032;2022-09-09T04:19:17;2.63;;;1.70;;
1507;SDS011;745;48.586;10.032;2022-09-09T04:23:49;2.17;;;1.93;;
1507;SDS011;745;48.586;10.032;2022-09-09T04:28:21;2.93;;;1.80;;
1507;SDS011;745;48.586;10.032;2022-09-09T04:32:53;3.13;;;2.80;;
1507;SDS011;745;48.586;10.032;2022-09-09T04:37:24;2.70;;;2.03;;
1507;SDS011;745;48.586;10.032;2022-09-09T04:41:55;2.10;;;1.90;;
1507;SDS011;745;48.586;10.032;2022-09-09T04:46:26;2.80;;;2.00;;
1507;SDS011;745;48.586;10.032;2022-09-09T04:50:58;7.40;;;6.10;;
1507;SDS011;745;48.586;10.032;2022-09-09T04:55:32;5.37;;;4.83;;
1507;SDS011;745;48.586;10.032;2022-09-09T05:00:04;4.90;;;4.17;;
1507;SDS011;745;48.586;10.032;2022-09-09T05:04:35;5.90;;;3.90;;
1507;SDS011;745;48.586;10.032;2022-09-09T05:09:06;3.80;;;3.50;;
1507;SDS011;745;48.586;10.032;2022-09-09T05:13:37;5.27;;;3.37;;
1507;SDS011;745;48.586;10.032;2022-09-09T05:18:07;5.30;;;4.80;;
1507;SDS011;745;48.586;10.032;2022-09-09T05:22:38;7.30;;;4.37;;
1507;SDS011;745;48.586;10.032;2022-09-09T05:27:09;4.10;;;3.70;;
1507;SDS011;745;48.586;10.032;2022-09-09T05:31:42;4.80;;;4.30;;
1507;SDS011;745;48.586;10.032;2022-09-09T05:36:13;4.17;;;3.77;;
1507;SDS011;745;48.586;10.032;2022-09-09T05:40:48;5.10;;;4.60;;
1507;SDS011;745;48.586;10.032;2022-09-09T05:45:20;4.80;;;4.20;;
1507;SDS011;745;48.586;10.032;2022-09-09T05:49:50;5.40;;;4.90;;
1507;SDS011;745;48.586;10.032;2022-09-09T05:54:22;3.70;;;3.40;;
1507;SDS011;745;48.586;10.032;2022-09-09T05:58:53;3.10;;;2.90;;
1507;SDS011;745;48.586;10.032;2022-09-09T06:03:24;2.47;;;2.27;;
1507;SDS011;745;48.586;10.032;2022-09-09T06:07:55;2.57;;;2.37;;
1507;SDS011;745;48.586;10.032;2022-09-09T06:12:26;2.13;;;2.00;;
1507;SDS011;745;48.586;10.032;2022-09-09T06:16:57;2.20;;;2.00;;
1507;SDS011;745;48.586;10.032;2022-09-09T06:21:31;2.13;;;2.03;;
1507;SDS011;745;48.586;10.032;2022-09-09T06:26:07;2.47;;;2.10;;
1507;SDS011;745;48.586;10.032;2022-09-09T06:30:41;3.27;;;2.67;;
1507;SDS011;745;48.586;10.032;2022-09-09T06:35:12;3.53;;;2.77;;
1507;SDS011;745;48.586;10.032;2022-09-09T06:39:43;4.67;;;4.23;;
1507;SDS011;745;48.586;10.032;2022-09-09T06:44:14;5.23;;;4.57;;
1507;SDS011;745;48.586;10.032;2022-09-09T06:48:45;4.63;;;3.37;;
1507;SDS011;745;48.586;10.032;2022-09-09T06:53:17;4.70;;;3.03;;
1507;SDS011;745;48.586;10.032;2022-09-09T06:57:49;1.90;;;1.80;;
1507;SDS011;745;48.586;10.032;2022-09-09T07:02:20;2.30;;;2.03;;
1507;SDS011;745;48.586;10.032;2022-09-09T07:06:51;3.00;;;2.00;;
1507;SDS011;745;48.586;10.032;2022-09-09T07:11:23;1.80;;;1.70;;
1507;SDS011;745;48.586;10.032;2022-09-09T07:16:04;2.60;;;2.07;;
1507;SDS011;745;48.586;10.032;2022-09-09T07:20:36;2.03;;;1.90;;
1507;SDS011;745;48.586;10.032;2022-09-09T07:25:06;2.10;;;1.90;;
1507;SDS011;745;48.586;10.032;2022-09-09T07:29:38;2.00;;;1.90;;
1507;SDS011;745;48.586;10.032;2022-09-09T07:34:08;2.57;;;1.90;;
1507;SDS011;745;48.586;10.032;2022-09-09T07:38:39;2.73;;;1.90;;
1507;SDS011;745;48.586;10.032;2022-09-09T07:43:15;2.80;;;2.23;;
1507;SDS011;745;48.586;10.032;2022-09-09T07:47:47;3.20;;;1.93;;
1507;SDS011;745;48.586;10.032;2022-09-09T07:52:18;2.23;;;1.70;;
1507;SDS011;745;48.586;10.032;2022-09-09T07:56:50;2.20;;;2.00;;
1507;SDS011;745;48.586;10.032;2022-09-09T08:05:59;3.80;;;1.90;;
1507;SDS011;745;48.586;10.032;2022-09-09T08:10:31;2.60;;;2.40;;
1507;SDS011;745;48.586;10.032;2022-09-09T08:15:02;1.80;;;1.70;;
1507;SDS011;745;48.586;10.032;2022-09-09T08:19:33;2.17;;;1.97;;
1507;SDS011;745;48.586;10.032;2022-09-09T08:24:06;3.00;;;1.83;;
1507;SDS011;745;48.586;10.032;2022-09-09T08:28:38;3.77;;;2.10;;
1507;SDS011;745;48.586;10.032;2022-09-09T08:33:10;2.60;;;1.90;;
1507;SDS011;745;48.586;10.032;2022-09-09T08:37:40;2.70;;;2.20;;
1507;SDS011;745;48.586;10.032;2022-09-09T08:42:23;2.03;;;1.93;;
1507;SDS011;745;48.586;10.032;2022-09-09T08:47:04;2.43;;;1.90;;
1507;SDS011;745;48.586;10.032;2022-09-09T08:51:55;3.83;;;1.90;;
1507;SDS011;745;48.586;10.032;2022-09-09T08:56:27;1.90;;;1.80;;
1507;SDS011;745;48.586;10.032;2022-09-09T09:01:09;2.40;;;1.83;;
1507;SDS011;745;48.586;10.032;2022-09-09T09:05:59;4.50;;;2.37;;
1507;SDS011;745;48.586;10.032;2022-09-09T09:10:47;5.03;;;2.07;;
1507;SDS011;745;48.586;10.032;2022-09-09T09:15:23;2.30;;;1.93;;
1507;SDS011;745;48.586;10.032;2022-09-09T09:19:57;2.53;;;2.00;;
1507;SDS011;745;48.586;10.032;2022-09-09T09:24:34;6.60;;;2.53;;
1507;SDS011;745;48.586;10.032;2022-09-09T09:29:17;3.30;;;2.07;;
1507;SDS011;745;48.586;10.032;2022-09-09T09:33:52;2.70;;;1.87;;
1507;SDS011;745;48.586;10.032;2022-09-09T09:38:24;2.33;;;1.80;;
1507;SDS011;745;48.586;10.032;2022-09-09T09:42:57;2.90;;;1.97;;
1507;SDS011;745;48.586;10.032;2022-09-09T09:47:30;1.93;;;1.60;;
1507;SDS011;745;48.586;10.032;2022-09-09T09:52:03;2.17;;;1.70;;
1507;SDS011;745;48.586;10.032;2022-09-09T09:56:34;2.77;;;1.83;;
1507;SDS011;745;48.586;10.032;2022-09-09T10:01:04;2.70;;;1.90;;
1507;SDS011;745;48.586;10.032;2022-09-09T10:05:36;3.63;;;2.10;;
1507;SDS011;745;48.586;10.032;2022-09-09T10:10:11;1.63;;;1.40;;
1507;SDS011;745;48.586;10.032;2022-09-09T10:14:52;2.80;;;1.87;;
1507;SDS011;745;48.586;10.032;2022-09-09T10:19:48;1.87;;;1.60;;
1507;SDS011;745;48.586;10.032;2022-09-09T10:29:28;2.13;;;1.53;;
1507;SDS011;745;48.586;10.032;2022-09-09T10:34:24;1.47;;;1.37;;
1507;SDS011;745;48.586;10.032;2022-09-09T10:39:18;3.10;;;1.83;;
1507;SDS011;745;48.586;10.032;2022-09-09T10:44:04;2.50;;;1.60;;
1507;SDS011;745;48.586;10.032;2022-09-09T10:54:58;4.20;;;1.73;;
1507;SDS011;745;48.586;10.032;2022-09-09T11:03:44;1.83;;;1.40;;
1507;SDS011;745;48.586;10.032;2022-09-09T11:08:21;3.77;;;1.80;;
1507;SDS011;745;48.586;10.032;2022-09-09T11:12:54;3.30;;;1.40;;
1507;SDS011;745;48.586;10.032;2022-09-09T11:17:31;3.97;;;1.90;;
1507;SDS011;745;48.586;10.032;2022-09-09T11:27:05;2.00;;;1.50;;
1507;SDS011;745;48.586;10.032;2022-09-09T11:36:43;1.57;;;1.43;;
1507;SDS011;745;48.586;10.032;2022-09-09T11:41:35;1.40;;;1.30;;
1507;SDS011;745;48.586;10.032;2022-09-09T11:46:07;3.83;;;2.00;;
1507;SDS011;745;48.586;10.032;2022-09-09T11:50:38;2.17;;;1.50;;
1507;SDS011;745;48.586;10.032;2022-09-09T11:55:33;2.13;;;1.60;;
1507;SDS011;745;48.586;10.032;2022-09-09T12:00:03;2.10;;;1.40;;
1507;SDS011;745;48.586;10.032;2022-09-09T12:04:48;2.27;;;1.77;;
1507;SDS011;745;48.586;10.032;2022-09-09T12:09:38;2.20;;;1.33;;
1507;SDS011;745;48.586;10.032;2022-09-09T12:18:52;7.23;;;1.70;;
1507;SDS011;745;48.586;10.032;2022-09-09T12:23:49;2.80;;;1.57;;
1507;SDS011;745;48.586;10.032;2022-09-09T12:28:22;1.43;;;1.33;;
1507;SDS011;745;48.586;10.032;2022-09-09T12:33:06;2.47;;;1.30;;
1507;SDS011;745;48.586;10.032;2022-09-09T12:37:50;2.50;;;1.47;;
1507;SDS011;745;48.586;10.032;2022-09-09T12:42:27;2.53;;;1.40;;
1507;SDS011;745;48.586;10.032;2022-09-09T12:46:58;2.57;;;1.37;;
1507;SDS011;745;48.586;10.032;2022-09-09T12:51:31;1.30;;;1.20;;
1507;SDS011;745;48.586;10.032;2022-09-09T12:56:06;1.77;;;1.17;;
1507;SDS011;745;48.586;10.032;2022-09-09T13:00:38;2.43;;;1.37;;
1507;SDS011;745;48.586;10.032;2022-09-09T13:05:38;2.47;;;1.53;;
1507;SDS011;745;48.586;10.032;2022-09-09T13:10:13;2.30;;;1.60;;
1507;SDS011;745;48.586;10.032;2022-09-09T13:14:46;2.23;;;1.40;;
1507;SDS011;745;48.586;10.032;2022-09-09T13:19:18;2.13;;;1.40;;
1507;SDS011;745;48.586;10.032;2022-09-09T13:23:49;1.60;;;1.40;;
1507;SDS011;745;48.586;10.032;2022-09-09T13:28:23;3.07;;;1.80;;
1507;SDS011;745;48.586;10.032;2022-09-09T13:33:03;2.07;;;1.43;;
1507;SDS011;745;48.586;10.032;2022-09-09T13:37:37;1.60;;;1.50;;
1507;SDS011;745;48.586;10.032;2022-09-09T13:42:19;1.63;;;1.30;;
1507;SDS011;745;48.586;10.032;2022-09-09T13:51:45;1.97;;;1.27;;
1507;SDS011;745;48.586;10.032;2022-09-09T13:56:17;1.50;;;1.20;;
1507;SDS011;745;48.586;10.032;2022-09-09T14:00:48;2.37;;;1.20;;
1507;SDS011;745;48.586;10.032;2022-09-09T14:05:20;1.40;;;1.30;;
1507;SDS011;745;48.586;10.032;2022-09-09T14:09:52;1.40;;;1.10;;
1507;SDS011;745;48.586;10.032;2022-09-09T14:14:23;1.30;;;1.20;;
1507;SDS011;745;48.586;10.032;2022-09-09T14:18:56;1.30;;;1.20;;
1507;SDS011;745;48.586;10.032;2022-09-09T14:23:27;1.30;;;1.20;;
1507;SDS011;745;48.586;10.032;2022-09-09T14:27:59;2.50;;;1.30;;
1507;SDS011;745;48.586;10.032;2022-09-09T14:32:30;1.77;;;1.23;;
1507;SDS011;745;48.586;10.032;2022-09-09T14:37:03;1.80;;;1.60;;
1507;SDS011;745;48.586;10.032;2022-09-09T14:41:34;2.13;;;1.50;;
1507;SDS011;745;48.586;10.032;2022-09-09T14:46:08;1.80;;;1.30;;
1507;SDS011;745;48.586;10.032;2022-09-09T14:50:41;2.03;;;1.20;;
1507;SDS011;745;48.586;10.032;2022-09-09T14:55:13;1.80;;;1.47;;
1507;SDS011;745;48.586;10.032;2022-09-09T14:59:44;2.03;;;1.40;;
1507;SDS011;745;48.586;10.032;2022-09-09T15:04:14;1.77;;;1.40;;
1507;SDS011;745;48.586;10.032;2022-09-09T15:08:46;2.60;;;1.50;;
1507;SDS011;745;48.586;10.032;2022-09-09T15:13:18;3.10;;;1.20;;
1507;SDS011;745;48.586;10.032;2022-09-09T15:17:48;1.97;;;1.50;;
1507;SDS011;745;48.586;10.032;2022-09-09T15:22:19;1.73;;;1.47;;
1507;SDS011;745;48.586;10.032;2022-09-09T15:26:50;1.50;;;1.40;;
1507;SDS011;745;48.586;10.032;2022-09-09T15:31:24;2.60;;;1.70;;
1507;SDS011;745;48.586;10.032;2022-09-09T15:35:56;3.40;;;1.70;;
1507;SDS011;745;48.586;10.032;2022-09-09T15:40:27;3.90;;;1.43;;
1507;SDS011;745;48.586;10.032;2022-09-09T15:44:57;2.93;;;1.83;;
1507;SDS011;745;48.586;10.032;2022-09-09T15:49:29;3.07;;;1.67;;
1507;SDS011;745;48.586;10.032;2022-09-09T15:54:00;3.57;;;1.73;;
1507;SDS011;745;48.586;10.032;2022-09-09T15:58:30;2.13;;;1.43;;
1507;SDS011;745;48.586;10.032;2022-09-09T16:03:02;1.70;;;1.40;;
1507;SDS011;745;48.586;10.032;2022-09-09T16:07:32;1.37;;;1.23;;
1507;SDS011;745;48.586;10.032;2022-09-09T16:12:05;1.87;;;1.30;;
1507;SDS011;745;48.586;10.032;2022-09-09T16:16:43;1.60;;;1.10;;
1507;SDS011;745;48.586;10.032;2022-09-09T16:21:14;2.90;;;1.33;;
1507;SDS011;745;48.586;10.032;2022-09-09T16:25:53;1.90;;;1.37;;
1507;SDS011;745;48.586;10.032;2022-09-09T16:30:27;1.57;;;1.30;;
1507;SDS011;745;48.586;10.032;2022-09-09T16:34:58;2.50;;;1.23;;
1507;SDS011;745;48.586;10.032;2022-09-09T16:39:29;1.63;;;1.20;;
1507;SDS011;745;48.586;10.032;2022-09-09T16:44:00;2.17;;;1.20;;
1507;SDS011;745;48.586;10.032;2022-09-09T16:48:33;3.57;;;1.27;;
1507;SDS011;745;48.586;10.032;2022-09-09T16:53:03;1.83;;;1.50;;
1507;SDS011;745;48.586;10.032;2022-09-09T16:57:38;2.37;;;1.27;;
1507;SDS011;745;48.586;10.032;2022-09-09T17:02:09;1.73;;;1.40;;
1507;SDS011;745;48.586;10.032;2022-09-09T17:06:40;2.73;;;1.50;;
1507;SDS011;745;48.586;10.032;2022-09-09T17:11:12;1.30;;;1.20;;
1507;SDS011;745;48.586;10.032;2022-09-09T17:15:44;2.23;;;1.43;;
1507;SDS011;745;48.586;10.032;2022-09-09T17:20:14;1.93;;;1.33;;
1507;SDS011;745;48.586;10.032;2022-09-09T17:24:46;1.70;;;1.20;;
1507;SDS011;745;48.586;10.032;2022-09-09T17:29:18;1.33;;;1.23;;
1507;SDS011;745;48.586;10.032;2022-09-09T17:33:49;2.87;;;1.40;;
1507;SDS011;745;48.586;10.032;2022-09-09T17:38:20;1.70;;;1.30;;
1507;SDS011;745;48.586;10.032;2022-09-09T17:42:52;2.17;;;1.40;;
1507;SDS011;745;48.586;10.032;2022-09-09T17:47:24;1.63;;;1.40;;
1507;SDS011;745;48.586;10.032;2022-09-09T17:51:55;1.80;;;1.43;;
1507;SDS011;745;48.586;10.032;2022-09-09T17:56:27;1.63;;;1.20;;
1507;SDS011;745;48.586;10.032;2022-09-09T18:01:10;4.90;;;1.20;;
1507;SDS011;745;48.586;10.032;2022-09-09T18:05:42;2.63;;;1.20;;
1507;SDS011;745;48.586;10.032;2022-09-09T18:10:13;1.47;;;1.37;;
1507;SDS011;745;48.586;10.032;2022-09-09T18:14:43;3.93;;;1.60;;
1507;SDS011;745;48.586;10.032;2022-09-09T18:19:16;1.30;;;1.20;;
1507;SDS011;745;48.586;10.032;2022-09-09T18:23:48;1.73;;;1.20;;
1507;SDS011;745;48.586;10.032;2022-09-09T18:28:21;1.10;;;1.00;;
1507;SDS011;745;48.586;10.032;2022-09-09T18:32:52;1.27;;;1.17;;
1507;SDS011;745;48.586;10.032;2022-09-09T18:37:22;1.33;;;1.23;;
1507;SDS011;745;48.586;10.032;2022-09-09T18:41:54;3.00;;;1.40;;
1507;SDS011;745;48.586;10.032;2022-09-09T18:46:30;2.10;;;1.77;;
1507;SDS011;745;48.586;10.032;2022-09-09T18:51:07;1.60;;;1.50;;
1507;SDS011;745;48.586;10.032;2022-09-09T18:55:39;1.40;;;1.13;;
1507;SDS011;745;48.586;10.032;2022-09-09T19:00:10;1.97;;;1.40;;
1507;SDS011;745;48.586;10.032;2022-09-09T19:04:41;2.07;;;1.63;;
1507;SDS011;745;48.586;10.032;2022-09-09T19:09:12;1.10;;;1.00;;
1507;SDS011;745;48.586;10.032;2022-09-09T19:13:50;1.20;;;1.10;;
1507;SDS011;745;48.586;10.032;2022-09-09T19:18:31;1.10;;;1.00;;
1507;SDS011;745;48.586;10.032;2022-09-09T19:23:02;1.40;;;1.00;;
1507;SDS011;745;48.586;10.032;2022-09-09T19:27:34;1.10;;;1.00;;
1507;SDS011;745;48.586;10.032;2022-09-09T19:32:06;2.33;;;1.23;;
1507;SDS011;745;48.586;10.032;2022-09-09T19:36:38;1.40;;;1.30;;
1507;SDS011;745;48.586;10.032;2022-09-09T19:41:10;1.10;;;1.00;;
1507;SDS011;745;48.586;10.032;2022-09-09T19:45:47;1.10;;;1.00;;
1507;SDS011;745;48.586;10.032;2022-09-09T19:50:26;1.10;;;1.00;;
1507;SDS011;745;48.586;10.032;2022-09-09T19:54:58;0.90;;;0.90;;
1507;SDS011;745;48.586;10.032;2022-09-09T19:59:28;1.27;;;1.17;;
1507;SDS011;745;48.586;10.032;2022-09-09T20:04:00;1.33;;;1.20;;
1507;SDS011;745;48.586;10.032;2022-09-09T20:08:34;1.13;;;1.03;;
1507;SDS011;745;48.586;10.032;2022-09-09T20:13:05;1.10;;;1.00;;
1507;SDS011;745;48.586;10.032;2022-09-09T20:17:36;1.10;;;1.00;;
1507;SDS011;745;48.586;10.032;2022-09-09T20:22:06;1.60;;;1.20;;
1507;SDS011;745;48.586;10.032;2022-09-09T20:26:37;1.20;;;1.10;;
1507;SDS011;745;48.586;10.032;2022-09-09T20:31:09;1.77;;;1.67;;
1507;SDS011;745;48.586;10.032;2022-09-09T20:35:43;1.30;;;1.20;;
1507;SDS011;745;48.586;10.032;2022-09-09T20:40:14;1.93;;;1.40;;
1507;SDS011;745;48.586;10.032;2022-09-09T20:44:45;1.37;;;1.27;;
1507;SDS011;745;48.586;10.032;2022-09-09T20:49:18;1.20;;;1.10;;
1507;SDS011;745;48.586;10.032;2022-09-09T20:53:53;1.50;;;1.40;;
1507;SDS011;745;48.586;10.032;2022-09-09T20:58:26;1.67;;;1.50;;
1507;SDS011;745;48.586;10.032;2022-09-09T21:02:57;1.40;;;1.30;;
1507;SDS011;745;48.586;10.032;2022-09-09T21:07:29;1.30;;;1.20;;
1507;SDS011;745;48.586;10.032;2022-09-09T21:11:59;2.10;;;1.23;;
1507;SDS011;745;48.586;10.032;2022-09-09T21:16:30;1.33;;;1.23;;
1507;SDS011;745;48.586;10.032;2022-09-09T21:21:01;1.20;;;1.10;;
1507;SDS011;745;48.586;10.032;2022-09-09T21:25:32;1.10;;;1.00;;
1507;SDS011;745;48.586;10.032;2022-09-09T21:30:03;1.40;;;1.30;;
1507;SDS011;745;48.586;10.032;2022-09-09T21:34:34;1.37;;;1.17;;
1507;SDS011;745;48.586;10.032;2022-09-09T21:39:05;1.20;;;1.10;;
1507;SDS011;745;48.586;10.032;2022-09-09T21:43:35;1.20;;;1.10;;
1507;SDS011;745;48.586;10.032;2022-09-09T21:48:07;1.20;;;1.10;;
1507;SDS011;745;48.586;10.032;2022-09-09T21:52:39;1.40;;;1.30;;
1507;SDS011;745;48.586;10.032;2022-09-09T21:57:09;1.17;;;1.07;;
1507;SDS011;745;48.586;10.032;2022-09-09T22:01:43;1.47;;;1.17;;
1507;SDS011;745;48.586;10.032;2022-09-09T22:06:14;2.10;;;1.40;;
1507;SDS011;745;48.586;10.032;2022-09-09T22:10:45;1.33;;;1.23;;
1507;SDS011;745;48.586;10.032;2022-09-09T22:15:17;1.40;;;1.20;;
1507;SDS011;745;48.586;10.032;2022-09-09T22:19:47;1.30;;;1.20;;
1507;SDS011;745;48.586;10.032;2022-09-09T22:24:18;1.30;;;1.20;;
1507;SDS011;745;48.586;10.032;2022-09-09T22:28:49;1.33;;;1.23;;
1507;SDS011;745;48.586;10.032;2022-09-09T22:33:22;1.30;;;1.20;;
1507;SDS011;745;48.586;10.032;2022-09-09T22:37:53;1.30;;;1.20;;
1507;SDS011;745;48.586;10.032;2022-09-09T22:42:24;1.30;;;1.20;;
1507;SDS011;745;48.586;10.032;2022-09-09T22:46:55;1.50;;;1.40;;
1507;SDS011;745;48.586;10.032;2022-09-09T22:51:26;1.40;;;1.30;;
1507;SDS011;745;48.586;10.032;2022-09-09T22:56:01;2.20;;;1.10;;
1507;SDS011;745;48.586;10.032;2022-09-09T23:00:33;1.60;;;1.50;;
1507;SDS011;745;48.586;10.032;2022-09-09T23:05:05;2.37;;;1.40;;
1507;SDS011;745;48.586;10.032;2022-09-09T23:09:37;2.03;;;1.40;;
1507;SDS011;745;48.586;10.032;2022-09-09T23:14:09;1.87;;;1.30;;
1507;SDS011;745;48.586;10.032;2022-09-09T23:18:40;1.40;;;1.30;;
1507;SDS011;745;48.586;10.032;2022-09-09T23:23:12;1.60;;;1.50;;
1507;SDS011;745;48.586;10.032;2022-09-09T23:27:43;1.60;;;1.50;;
1507;SDS011;745;48.586;10.032;2022-09-09T23:32:14;2.50;;;1.77;;
1507;SDS011;745;48.586;10.032;2022-09-09T23:36:46;2.40;;;1.90;;
1507;SDS011;745;48.586;10.032;2022-09-09T23:41:17;1.67;;;1.57;;
1507;SDS011;745;48.586;10.032;2022-09-09T23:45:50;1.90;;;1.53;;
1507;SDS011;745;48.586;10.032;2022-09-09T23:50:20;1.63;;;1.50;;
1507;SDS011;745;48.586;10.032;2022-09-09T23:54:51;1.67;;;1.57;;
1507;SDS011;745;48.586;10.032;2022-09-09T23:59:21;1.60;;;1.50;;
